createdAt,value
2023-04-15T00:01:25.767Z,100159.97
2023-04-15T00:06:29.232Z,100152.63
2023-04-15T00:11:34.141Z,100147.78
2023-04-15T00:16:37.588Z,100143.34
2023-04-15T00:21:41.285Z,100137.69
2023-04-15T00:26:46.058Z,100133.06
2023-04-15T00:31:49.615Z,100128.44
2023-04-15T00:36:53.466Z,100125.19
2023-04-15T00:41:58.871Z,100124.31
2023-04-15T00:47:02.766Z,100124.44
2023-04-15T00:52:06.379Z,100122.59
2023-04-15T00:57:11.154Z,100121.03
2023-04-15T01:02:14.702Z,100112.31
2023-04-15T01:07:18.800Z,100119.56
2023-04-15T01:12:23.997Z,100111.56
2023-04-15T01:17:27.473Z,100113.72
2023-04-15T01:22:31.441Z,100112.97
2023-04-15T01:27:40.873Z,100110.00
2023-04-15T01:32:44.408Z,100113.78
2023-04-15T01:38:08.712Z,100103.81
2023-04-15T01:43:13.464Z,100110.56
2023-04-15T01:48:20.685Z,100105.34
2023-04-15T01:53:25.811Z,100104.94
2023-04-15T01:58:31.978Z,100108.63
2023-04-15T02:03:37.325Z,100093.28
2023-04-15T02:08:42.429Z,100094.53
2023-04-15T02:13:48.566Z,100084.66
2023-04-15T02:18:53.309Z,100088.56
2023-04-15T02:23:57.994Z,100082.16
2023-04-15T02:29:04.393Z,100085.25
2023-04-15T02:34:09.241Z,100074.56
2023-04-15T02:39:16.683Z,100081.34
2023-04-15T02:44:24.820Z,100086.59
2023-04-15T02:49:32.691Z,100090.22
2023-04-15T02:54:38.608Z,100102.50
2023-04-15T02:59:44.773Z,100094.03
2023-04-15T03:04:49.839Z,100098.69
2023-04-15T03:09:54.606Z,100094.97
2023-04-15T03:15:02.063Z,100098.66
2023-04-15T03:20:13.387Z,100103.88
2023-04-15T03:25:18.422Z,100099.56
2023-04-15T03:30:24.615Z,100097.84
2023-04-15T03:35:29.429Z,100092.75
2023-04-15T03:40:34.398Z,100092.16
2023-04-15T03:45:40.553Z,100084.00
2023-04-15T03:50:45.211Z,100088.44
2023-04-15T03:55:50.123Z,100097.66
2023-04-15T04:00:56.276Z,100097.63
2023-04-15T04:06:00.964Z,100099.19
2023-04-15T04:11:06.500Z,100102.38
2023-04-15T04:16:12.656Z,100105.41
2023-04-15T04:21:17.630Z,100097.53
2023-04-15T04:26:22.718Z,100099.97
2023-04-15T04:31:29.091Z,100105.28
2023-04-15T04:36:33.896Z,100097.09
2023-04-15T04:41:38.652Z,100103.59
2023-04-15T04:46:44.702Z,100114.06
2023-04-15T04:51:49.427Z,100102.22
2023-04-15T04:56:54.080Z,100102.97
2023-04-15T05:02:00.251Z,100107.38
2023-04-15T05:07:05.135Z,100113.13
2023-04-15T05:12:14.761Z,100116.91
2023-04-15T05:17:20.869Z,100113.06
2023-04-15T05:22:25.643Z,100115.69
2023-04-15T05:27:30.747Z,100116.31
2023-04-15T05:32:36.795Z,100106.63
2023-04-15T05:37:41.675Z,100107.53
2023-04-15T05:42:46.528Z,100106.13
2023-04-15T05:47:54.378Z,100102.88
2023-04-15T05:52:59.119Z,100098.06
2023-04-15T05:58:04.359Z,100099.69
2023-04-15T06:03:11.645Z,100101.97
2023-04-15T06:08:16.476Z,100103.44
2023-04-15T06:13:21.211Z,100109.03
2023-04-15T06:18:27.256Z,100097.78
2023-04-15T06:23:31.983Z,100102.03
2023-04-15T06:28:36.631Z,100096.84
2023-04-15T06:33:42.656Z,100107.47
2023-04-15T06:38:47.370Z,100105.66
2023-04-15T06:43:52.108Z,100109.28
2023-04-15T06:48:58.149Z,100114.47
2023-04-15T06:54:05.793Z,100103.47
2023-04-15T06:59:10.686Z,100111.63
2023-04-15T07:04:16.760Z,100109.16
2023-04-15T07:09:21.718Z,100114.19
2023-04-15T07:14:26.552Z,100137.97
2023-04-15T07:19:32.595Z,100136.63
2023-04-15T07:24:37.262Z,100136.56
2023-04-15T07:29:42.139Z,100133.94
2023-04-15T07:34:48.124Z,100133.13
2023-04-15T07:39:52.888Z,100134.53
2023-04-15T07:44:58.068Z,100144.28
2023-04-15T07:50:04.260Z,100149.25
2023-04-15T07:55:09.882Z,100162.63
2023-04-15T08:00:16.214Z,100149.97
2023-04-15T08:05:22.523Z,100156.94
2023-04-15T08:10:27.407Z,100169.63
2023-04-15T08:15:32.941Z,100169.31
2023-04-15T08:20:39.108Z,100166.16
2023-04-15T08:25:43.781Z,100171.13
2023-04-15T08:30:49.019Z,100179.50
2023-04-15T08:35:55.102Z,100171.25
2023-04-15T08:41:01.543Z,100170.97
2023-04-15T08:46:06.577Z,100161.66
2023-04-15T08:51:15.995Z,100179.69
2023-04-15T08:56:22.690Z,100164.56
2023-04-15T09:01:28.003Z,100174.63
2023-04-15T09:06:34.082Z,100175.13
2023-04-15T09:11:39.076Z,100177.28
2023-04-15T09:17:00.896Z,100200.38
2023-04-15T09:22:07.546Z,100193.63
2023-04-15T09:27:12.254Z,100207.78
2023-04-15T09:32:17.506Z,100205.50
2023-04-15T09:37:36.470Z,100209.97
2023-04-15T09:42:56.019Z,100221.38
2023-04-15T09:48:01.616Z,100222.78
2023-04-15T09:53:10.526Z,100214.91
2023-04-15T09:58:23.377Z,100215.25
2023-04-15T10:03:30.080Z,100218.69
2023-04-15T10:08:36.371Z,100230.97
2023-04-15T10:13:41.223Z,100233.47
2023-04-15T10:18:47.360Z,100234.38
2023-04-15T10:23:53.525Z,100240.31
2023-04-15T10:29:00.136Z,100233.69
2023-04-15T10:34:06.504Z,100236.41
2023-04-15T10:39:44.306Z,100229.03
2023-04-15T10:44:51.683Z,100232.13
2023-04-15T10:49:59.383Z,100227.75
2023-04-15T10:55:15.624Z,100226.97
2023-04-15T11:00:30.745Z,100228.47
2023-04-15T11:05:51.433Z,100228.09
2023-04-15T11:10:57.514Z,100244.75
2023-04-15T11:16:03.459Z,100253.44
2023-04-15T11:21:09.570Z,100259.72
2023-04-15T11:26:15.800Z,100253.78
2023-04-15T11:31:21.044Z,100250.97
2023-04-15T11:36:28.171Z,100264.19
2023-04-15T11:41:34.324Z,100277.25
2023-04-15T11:46:39.092Z,100281.28
2023-04-15T11:51:43.905Z,100281.66
2023-04-15T11:56:53.566Z,100285.00
2023-04-15T12:01:57.206Z,100288.06
2023-04-15T12:07:06.818Z,100305.72
2023-04-15T12:12:12.381Z,100297.66
2023-04-15T12:17:16.732Z,100310.03
2023-04-15T12:22:22.169Z,100315.81
2023-04-15T12:27:29.742Z,100317.72
2023-04-15T12:32:36.385Z,100329.78
2023-04-15T12:37:39.803Z,100332.25
2023-04-15T12:42:44.664Z,100330.63
2023-04-15T12:47:50.381Z,100339.03
2023-04-15T12:52:54.285Z,100345.44
2023-04-15T12:57:59.121Z,100360.09
2023-04-15T13:03:03.530Z,100363.56
2023-04-15T13:08:09.906Z,100364.31
2023-04-15T13:13:14.732Z,100365.66
2023-04-15T13:18:18.176Z,100371.22
2023-04-15T13:23:21.678Z,100379.06
2023-04-15T13:28:34.207Z,100381.34
2023-04-15T13:33:49.208Z,100393.28
2023-04-15T13:38:52.750Z,100390.53
2023-04-15T13:43:58.406Z,100377.06
2023-04-15T13:49:01.971Z,100372.00
2023-04-15T13:54:05.822Z,100380.63
2023-04-15T13:59:10.959Z,100383.66
2023-04-15T14:04:14.905Z,100377.41
2023-04-15T14:09:18.567Z,100385.47
2023-04-15T14:14:23.494Z,100384.97
2023-04-15T14:19:27.794Z,100388.66
2023-04-15T14:24:31.249Z,100393.03
2023-04-15T14:29:36.086Z,100392.69
2023-04-15T14:34:39.492Z,100401.56
2023-04-15T14:39:42.905Z,100414.66
2023-04-15T14:44:47.748Z,100414.50
2023-04-15T14:49:51.415Z,100421.00
2023-04-15T14:54:54.995Z,100423.16
2023-04-15T14:59:59.849Z,100424.00
2023-04-15T15:05:03.889Z,100420.66
2023-04-15T15:10:08.217Z,100416.31
2023-04-15T15:15:28.245Z,100425.91
2023-04-15T15:20:32.935Z,100432.31
2023-04-15T15:25:36.598Z,100436.22
2023-04-15T15:30:41.551Z,100437.47
2023-04-15T15:35:45.474Z,100438.34
2023-04-15T15:40:48.854Z,100447.72
2023-04-15T15:45:55.562Z,100445.31
2023-04-15T15:50:59.059Z,100446.25
2023-04-15T15:56:03.787Z,100451.44
2023-04-15T16:01:08.663Z,100459.69
2023-04-15T16:06:12.051Z,100472.34
2023-04-15T16:11:16.016Z,100466.50
2023-04-15T16:16:20.849Z,100480.09
2023-04-15T16:21:24.837Z,100478.22
2023-04-15T16:26:28.308Z,100474.91
2023-04-15T16:31:34.466Z,100482.31
2023-04-15T16:36:40.286Z,100491.13
2023-04-15T16:41:43.738Z,100490.75
2023-04-15T16:46:48.525Z,100501.28
2023-04-15T16:51:53.499Z,100511.16
2023-04-15T16:56:58.545Z,100521.56
2023-04-15T17:02:03.386Z,100534.97
2023-04-15T17:07:08.715Z,100535.53
2023-04-15T17:12:12.166Z,100548.22
2023-04-15T17:17:17.134Z,100559.72
2023-04-15T17:22:21.012Z,100559.44
2023-04-15T17:27:26.424Z,100562.03
2023-04-15T17:32:34.466Z,100570.97
2023-04-15T17:37:58.517Z,100575.16
2023-04-15T17:43:22.054Z,100579.13
2023-04-15T17:48:47.564Z,100585.78
2023-04-15T17:54:10.999Z,100586.91
2023-04-15T17:59:34.653Z,100603.16
2023-04-15T18:04:59.605Z,100609.63
2023-04-15T18:10:23.962Z,100614.50
2023-04-15T18:15:48.596Z,100618.47
2023-04-15T18:21:13.868Z,100633.38
2023-04-15T18:26:17.510Z,100636.78
2023-04-15T18:31:21.051Z,100637.47
2023-04-15T18:36:26.612Z,100645.97
2023-04-15T18:41:29.981Z,100653.25
2023-04-15T18:46:33.418Z,100668.16
2023-04-15T18:51:38.323Z,100682.78
2023-04-15T18:56:41.852Z,100692.28
2023-04-15T19:01:45.420Z,100697.69
2023-04-15T19:06:50.243Z,100697.19
2023-04-15T19:11:53.644Z,100706.72
2023-04-15T19:16:57.094Z,100716.13
2023-04-15T19:22:03.235Z,100714.31
2023-04-15T19:27:06.724Z,100724.31
2023-04-15T19:32:10.237Z,100735.06
2023-04-15T19:37:15.777Z,100732.13
2023-04-15T19:42:19.143Z,100735.06
2023-04-15T19:47:23.751Z,100737.91
2023-04-15T19:52:28.487Z,100747.31
2023-04-15T19:57:32.337Z,100750.28
2023-04-15T20:02:36.100Z,100759.00
2023-04-15T20:07:42.412Z,100756.44
2023-04-15T20:12:51.690Z,100754.19
2023-04-15T20:17:56.775Z,100766.53
2023-04-15T20:23:04.207Z,100764.03
2023-04-15T20:28:07.648Z,100779.94
2023-04-15T20:33:11.541Z,100779.78
2023-04-15T20:38:17.432Z,100784.41
2023-04-15T20:43:21.415Z,100779.91
2023-04-15T20:48:25.299Z,100791.47
2023-04-15T20:53:30.012Z,100786.94
2023-04-15T20:58:33.431Z,100792.72
2023-04-15T21:03:37.194Z,100792.84
2023-04-15T21:08:42.172Z,100800.28
2023-04-15T21:13:46.336Z,100807.03
2023-04-15T21:18:49.726Z,100820.16
2023-04-15T21:23:54.450Z,100823.28
2023-04-15T21:28:57.831Z,100827.63
2023-04-15T21:34:01.266Z,100832.53
2023-04-15T21:39:06.787Z,100843.28
2023-04-15T21:44:12.075Z,100850.63
2023-04-15T21:49:16.756Z,100857.09
2023-04-15T21:54:21.516Z,100857.91
2023-04-15T21:59:24.982Z,100868.59
2023-04-15T22:04:28.513Z,100869.47
2023-04-15T22:09:33.499Z,100886.56
2023-04-15T22:14:37.017Z,100869.06
2023-04-15T22:19:40.992Z,100872.97
2023-04-15T22:24:45.767Z,100890.47
2023-04-15T22:29:49.177Z,100879.59
2023-04-15T22:34:52.635Z,100901.59
2023-04-15T22:39:57.582Z,100895.03
2023-04-15T22:45:00.980Z,100900.84
2023-04-15T22:50:04.688Z,100912.53
2023-04-15T22:55:10.327Z,100903.50
2023-04-15T23:00:14.412Z,100916.63
2023-04-15T23:05:18.140Z,100936.19
2023-04-15T23:10:23.176Z,100932.72
2023-04-15T23:15:26.636Z,100940.78
2023-04-15T23:20:30.040Z,100942.59
2023-04-15T23:25:34.824Z,100951.13
2023-04-15T23:30:38.566Z,100953.25
2023-04-15T23:35:42.978Z,100958.22
2023-04-15T23:40:47.800Z,100958.16
2023-04-15T23:45:51.212Z,100957.13
2023-04-15T23:50:54.648Z,100957.97
2023-04-15T23:55:59.346Z,100956.81
